De Beque, Colorado
Current Conditions -  °F | °C
As of 7:36 PM on Wednesday 17 Dec 2014 (Local Time) from KGJT Reporting Station
Haze Haze  
Wind Chill: 35°   Ceiling: 1300
Heat Index: 35°   Visibility: 3mi
Dew Point: 35°   Wind: 0mph
Humidity: 100%   Direction: NA
Pressure: 30.01"   Gusts: NA
Location:  39.33°N, 108.22°W
Report Text: KGJT 180236Z 00000KT 3SM BR SCT008 OVC013 02/02 A3001 RMK AO2 T00170017
Loading
Personal Weather Stations






























Interactive Weather Map New forecast layout! Learn more

10-Day Weather Forecast

Advertisements
Track Severe Weather on mobile